sensor_id;sensor_type;location;lat;lon;timestamp;pressure;altitude;pressure_sealevel;temperature;humidity
73700;BME280;62005;50.082;8.988;2023-07-24T00:00:01;99668.34;;;20.96;71.41
73700;BME280;62005;50.082;8.988;2023-07-24T00:02:26;99679.56;;;21.00;71.09
73700;BME280;62005;50.082;8.988;2023-07-24T00:04:52;99680.78;;;20.94;70.98
73700;BME280;62005;50.082;8.988;2023-07-24T00:07:17;99665.09;;;20.94;70.34
73700;BME280;62005;50.082;8.988;2023-07-24T00:09:43;99663.66;;;20.97;70.08
73700;BME280;62005;50.082;8.988;2023-07-24T00:12:08;99662.06;;;20.96;69.98
73700;BME280;62005;50.082;8.988;2023-07-24T00:14:33;99662.47;;;21.03;69.94
73700;BME280;62005;50.082;8.988;2023-07-24T00:16:59;99662.06;;;20.96;69.92
73700;BME280;62005;50.082;8.988;2023-07-24T00:19:24;99669.59;;;21.04;69.89
73700;BME280;62005;50.082;8.988;2023-07-24T00:21:49;99658.19;;;20.97;69.55
73700;BME280;62005;50.082;8.988;2023-07-24T00:24:15;99669.59;;;21.04;69.82
73700;BME280;62005;50.082;8.988;2023-07-24T00:26:40;99642.53;;;20.84;69.54
73700;BME280;62005;50.082;8.988;2023-07-24T00:29:05;99648.44;;;20.91;69.55
73700;BME280;62005;50.082;8.988;2023-07-24T00:31:31;99661.47;;;20.99;69.49
73700;BME280;62005;50.082;8.988;2023-07-24T00:33:56;99651.06;;;20.96;69.71
73700;BME280;62005;50.082;8.988;2023-07-24T00:36:25;99638.03;;;20.88;69.92
73700;BME280;62005;50.082;8.988;2023-07-24T00:38:50;99648.59;;;20.94;69.69
73700;BME280;62005;50.082;8.988;2023-07-24T00:41:15;99653.31;;;20.94;69.66
73700;BME280;62005;50.082;8.988;2023-07-24T00:43:41;99639.66;;;20.89;70.27
73700;BME280;62005;50.082;8.988;2023-07-24T00:46:06;99632.31;;;20.84;70.27
73700;BME280;62005;50.082;8.988;2023-07-24T00:48:31;99651.28;;;20.86;70.12
73700;BME280;62005;50.082;8.988;2023-07-24T00:50:57;99633.16;;;20.85;70.13
73700;BME280;62005;50.082;8.988;2023-07-24T00:53:22;99626.66;;;20.81;70.28
73700;BME280;62005;50.082;8.988;2023-07-24T00:55:48;99624.03;;;20.76;71.26
73700;BME280;62005;50.082;8.988;2023-07-24T00:58:16;99638.25;;;20.77;71.06
73700;BME280;62005;50.082;8.988;2023-07-24T01:00:41;99629.63;;;20.70;71.06
73700;BME280;62005;50.082;8.988;2023-07-24T01:03:07;99630.09;;;20.72;71.00
73700;BME280;62005;50.082;8.988;2023-07-24T01:05:33;99646.59;;;20.72;70.92
73700;BME280;62005;50.082;8.988;2023-07-24T01:07:58;99631.34;;;20.66;71.27
73700;BME280;62005;50.082;8.988;2023-07-24T01:10:24;99621.50;;;20.65;70.92
73700;BME280;62005;50.082;8.988;2023-07-24T01:13:01;99621.19;;;20.67;71.26
73700;BME280;62005;50.082;8.988;2023-07-24T01:15:32;99619.75;;;20.69;71.14
73700;BME280;62005;50.082;8.988;2023-07-24T01:18:00;99624.63;;;20.72;70.50
73700;BME280;62005;50.082;8.988;2023-07-24T01:20:28;99623.00;;;20.71;70.63
73700;BME280;62005;50.082;8.988;2023-07-24T01:25:56;99630.72;;;20.69;70.93
73700;BME280;62005;50.082;8.988;2023-07-24T01:28:22;99608.66;;;20.61;70.61
73700;BME280;62005;50.082;8.988;2023-07-24T01:30:47;99623.63;;;20.68;70.20
73700;BME280;62005;50.082;8.988;2023-07-24T01:33:13;99624.63;;;20.72;69.82
73700;BME280;62005;50.082;8.988;2023-07-24T01:35:41;99622.38;;;20.74;69.84
73700;BME280;62005;50.082;8.988;2023-07-24T01:38:09;99624.63;;;20.72;70.00
73700;BME280;62005;50.082;8.988;2023-07-24T01:40:34;99620.75;;;20.73;70.12
73700;BME280;62005;50.082;8.988;2023-07-24T01:43:00;99618.63;;;20.70;69.85
73700;BME280;62005;50.082;8.988;2023-07-24T01:45:25;99617.00;;;20.69;69.98
73700;BME280;62005;50.082;8.988;2023-07-24T01:47:50;99608.84;;;20.64;70.29
73700;BME280;62005;50.082;8.988;2023-07-24T01:50:16;99613.75;;;20.67;69.87
73700;BME280;62005;50.082;8.988;2023-07-24T01:52:41;99589.84;;;20.54;70.35
73700;BME280;62005;50.082;8.988;2023-07-24T01:55:07;99612.22;;;20.61;70.35
73700;BME280;62005;50.082;8.988;2023-07-24T01:57:32;99599.63;;;20.60;70.97
73700;BME280;62005;50.082;8.988;2023-07-24T01:59:57;99599.94;;;20.59;70.23
73700;BME280;62005;50.082;8.988;2023-07-24T02:02:23;99585.59;;;20.48;70.19
73700;BME280;62005;50.082;8.988;2023-07-24T02:04:48;99590.88;;;20.58;69.81
73700;BME280;62005;50.082;8.988;2023-07-24T02:07:13;99594.75;;;20.57;69.82
73700;BME280;62005;50.082;8.988;2023-07-24T02:09:39;99597.81;;;20.56;69.76
73700;BME280;62005;50.082;8.988;2023-07-24T02:12:05;99589.84;;;20.54;69.52
73700;BME280;62005;50.082;8.988;2023-07-24T02:14:30;99578.84;;;20.54;69.25
73700;BME280;62005;50.082;8.988;2023-07-24T02:16:55;99564.66;;;20.52;69.51
73700;BME280;62005;50.082;8.988;2023-07-24T02:19:21;99570.34;;;20.56;69.18
73700;BME280;62005;50.082;8.988;2023-07-24T02:21:46;99558.66;;;20.50;69.14
73700;BME280;62005;50.082;8.988;2023-07-24T02:24:11;99553.03;;;20.55;69.94
73700;BME280;62005;50.082;8.988;2023-07-24T02:26:37;99526.78;;;20.49;69.75
73700;BME280;62005;50.082;8.988;2023-07-24T02:29:02;99493.16;;;20.44;69.16
73700;BME280;62005;50.082;8.988;2023-07-24T02:31:27;99489.59;;;20.43;69.27
73700;BME280;62005;50.082;8.988;2023-07-24T02:33:53;99456.47;;;20.26;69.05
73700;BME280;62005;50.082;8.988;2023-07-24T02:36:18;99448.34;;;20.21;68.90
73700;BME280;62005;50.082;8.988;2023-07-24T02:38:43;99493.94;;;20.44;68.49
73700;BME280;62005;50.082;8.988;2023-07-24T02:41:09;99510.94;;;20.46;68.48
73700;BME280;62005;50.082;8.988;2023-07-24T02:43:34;99521.31;;;20.49;68.56
73700;BME280;62005;50.082;8.988;2023-07-24T02:46:00;99526.63;;;20.46;68.38
73700;BME280;62005;50.082;8.988;2023-07-24T02:48:27;99504.69;;;20.32;68.01
73700;BME280;62005;50.082;8.988;2023-07-24T02:50:52;99531.91;;;20.42;68.09
73700;BME280;62005;50.082;8.988;2023-07-24T02:53:17;99538.41;;;20.46;68.23
73700;BME280;62005;50.082;8.988;2023-07-24T02:55:43;99544.50;;;20.43;68.61
73700;BME280;62005;50.082;8.988;2023-07-24T02:58:08;99540.25;;;20.37;68.98
73700;BME280;62005;50.082;8.988;2023-07-24T03:00:34;99539.22;;;20.33;68.46
73700;BME280;62005;50.082;8.988;2023-07-24T03:02:59;99534.25;;;20.35;68.77
73700;BME280;62005;50.082;8.988;2023-07-24T03:05:25;99537.00;;;20.35;68.43
73700;BME280;62005;50.082;8.988;2023-07-24T03:07:50;99535.38;;;20.34;67.89
73700;BME280;62005;50.082;8.988;2023-07-24T03:10:15;99536.59;;;20.28;67.75
73700;BME280;62005;50.082;8.988;2023-07-24T03:12:41;99523.06;;;20.18;67.24
73700;BME280;62005;50.082;8.988;2023-07-24T03:15:06;99499.78;;;20.02;66.98
73700;BME280;62005;50.082;8.988;2023-07-24T03:17:32;99549.22;;;20.29;66.74
73700;BME280;62005;50.082;8.988;2023-07-24T03:19:59;99547.56;;;20.28;66.39
73700;BME280;62005;50.082;8.988;2023-07-24T03:22:24;99534.56;;;20.20;65.94
73700;BME280;62005;50.082;8.988;2023-07-24T03:24:49;99541.09;;;20.24;66.36
73700;BME280;62005;50.082;8.988;2023-07-24T03:27:14;99541.09;;;20.24;66.07
73700;BME280;62005;50.082;8.988;2023-07-24T03:29:40;99540.06;;;20.20;66.07
73700;BME280;62005;50.082;8.988;2023-07-24T03:32:06;99543.31;;;20.22;66.10
73700;BME280;62005;50.082;8.988;2023-07-24T03:34:32;99525.63;;;20.15;66.16
73700;BME280;62005;50.082;8.988;2023-07-24T03:36:57;99526.94;;;20.17;66.19
73700;BME280;62005;50.082;8.988;2023-07-24T03:39:22;99503.03;;;20.04;66.68
73700;BME280;62005;50.082;8.988;2023-07-24T03:41:48;99526.59;;;20.05;66.72
73700;BME280;62005;50.082;8.988;2023-07-24T03:44:13;99515.22;;;19.98;66.08
73700;BME280;62005;50.082;8.988;2023-07-24T03:46:38;99527.44;;;20.06;66.00
73700;BME280;62005;50.082;8.988;2023-07-24T03:49:04;99510.34;;;19.95;66.47
73700;BME280;62005;50.082;8.988;2023-07-24T03:51:29;99508.13;;;19.97;66.38
73700;BME280;62005;50.082;8.988;2023-07-24T03:53:54;99500.50;;;19.94;66.70
73700;BME280;62005;50.082;8.988;2023-07-24T03:56:20;99484.97;;;19.90;66.50
73700;BME280;62005;50.082;8.988;2023-07-24T03:58:45;99494.50;;;19.92;67.15
73700;BME280;62005;50.082;8.988;2023-07-24T04:01:10;99476.63;;;19.81;66.94
73700;BME280;62005;50.082;8.988;2023-07-24T04:03:36;99484.75;;;19.86;67.03
73700;BME280;62005;50.082;8.988;2023-07-24T04:06:01;99476.63;;;19.81;67.28
73700;BME280;62005;50.082;8.988;2023-07-24T04:08:27;99477.41;;;19.82;66.85
73700;BME280;62005;50.082;8.988;2023-07-24T04:10:52;99479.88;;;19.83;66.94
73700;BME280;62005;50.082;8.988;2023-07-24T04:13:18;99474.41;;;19.83;66.54
73700;BME280;62005;50.082;8.988;2023-07-24T04:15:43;99463.44;;;19.83;66.19
73700;BME280;62005;50.082;8.988;2023-07-24T04:18:11;99455.09;;;19.88;66.74
73700;BME280;62005;50.082;8.988;2023-07-24T04:20:37;99446.34;;;19.86;67.06
73700;BME280;62005;50.082;8.988;2023-07-24T04:23:02;99452.84;;;19.90;66.86
73700;BME280;62005;50.082;8.988;2023-07-24T04:25:28;99445.13;;;19.92;67.23
73700;BME280;62005;50.082;8.988;2023-07-24T04:27:53;99448.69;;;19.93;66.80
73700;BME280;62005;50.082;8.988;2023-07-24T04:30:18;99468.09;;;19.96;66.94
73700;BME280;62005;50.082;8.988;2023-07-24T04:32:44;99464.84;;;19.94;67.06
73700;BME280;62005;50.082;8.988;2023-07-24T04:35:09;99487.56;;;20.08;66.84
73700;BME280;62005;50.082;8.988;2023-07-24T04:37:34;99483.13;;;20.12;66.71
73700;BME280;62005;50.082;8.988;2023-07-24T04:40:00;99482.94;;;20.22;66.83
73700;BME280;62005;50.082;8.988;2023-07-24T04:42:25;99484.53;;;20.23;66.73
73700;BME280;62005;50.082;8.988;2023-07-24T04:44:51;99490.44;;;20.30;66.56
73700;BME280;62005;50.082;8.988;2023-07-24T04:47:16;99480.47;;;20.34;66.96
73700;BME280;62005;50.082;8.988;2023-07-24T04:49:42;99467.22;;;20.36;66.51
73700;BME280;62005;50.082;8.988;2023-07-24T04:52:07;99460.53;;;20.42;65.95
73700;BME280;62005;50.082;8.988;2023-07-24T04:54:32;99466.44;;;20.71;65.93
73700;BME280;62005;50.082;8.988;2023-07-24T04:56:58;99472.69;;;20.86;64.91
73700;BME280;62005;50.082;8.988;2023-07-24T04:59:23;99456.56;;;20.70;64.69
73700;BME280;62005;50.082;8.988;2023-07-24T05:01:49;99468.13;;;20.81;64.62
73700;BME280;62005;50.082;8.988;2023-07-24T05:04:14;99455.81;;;20.79;64.48
73700;BME280;62005;50.082;8.988;2023-07-24T05:06:39;99459.56;;;20.83;64.34
73700;BME280;62005;50.082;8.988;2023-07-24T05:09:05;99445.16;;;20.77;64.04
73700;BME280;62005;50.082;8.988;2023-07-24T05:11:30;99456.34;;;20.81;64.15
73700;BME280;62005;50.082;8.988;2023-07-24T05:13:56;99451.75;;;20.76;63.76
73700;BME280;62005;50.082;8.988;2023-07-24T05:16:21;99460.19;;;20.80;63.97
73700;BME280;62005;50.082;8.988;2023-07-24T05:18:46;99473.41;;;20.77;63.43
73700;BME280;62005;50.082;8.988;2023-07-24T05:21:12;99490.28;;;20.85;63.61
73700;BME280;62005;50.082;8.988;2023-07-24T05:23:37;99486.44;;;20.86;63.88
73700;BME280;62005;50.082;8.988;2023-07-24T05:26:03;99475.44;;;20.86;63.88
73700;BME280;62005;50.082;8.988;2023-07-24T05:28:30;99479.28;;;20.85;63.68
73700;BME280;62005;50.082;8.988;2023-07-24T05:30:59;99477.06;;;20.87;63.42
73700;BME280;62005;50.082;8.988;2023-07-24T05:33:24;99464.06;;;20.79;63.92
73700;BME280;62005;50.082;8.988;2023-07-24T05:35:50;99469.13;;;20.85;63.60
73700;BME280;62005;50.082;8.988;2023-07-24T05:38:15;99469.31;;;20.89;63.43
73700;BME280;62005;50.082;8.988;2023-07-24T05:40:41;99466.44;;;20.94;63.22
73700;BME280;62005;50.082;8.988;2023-07-24T05:43:06;99453.47;;;20.86;63.02
73700;BME280;62005;50.082;8.988;2023-07-24T05:45:31;99461.97;;;20.98;63.07
73700;BME280;62005;50.082;8.988;2023-07-24T05:47:57;99454.59;;;21.07;63.01
73700;BME280;62005;50.082;8.988;2023-07-24T05:50:22;99449.47;;;21.14;63.40
73700;BME280;62005;50.082;8.988;2023-07-24T05:52:47;99444.34;;;21.21;62.99
73700;BME280;62005;50.082;8.988;2023-07-24T05:55:13;99459.94;;;21.34;63.39
73700;BME280;62005;50.082;8.988;2023-07-24T05:57:38;99448.13;;;21.33;62.84
73700;BME280;62005;50.082;8.988;2023-07-24T06:00:04;99456.59;;;21.45;62.40
73700;BME280;62005;50.082;8.988;2023-07-24T06:02:30;99437.13;;;21.33;62.07
73700;BME280;62005;50.082;8.988;2023-07-24T06:04:56;99475.56;;;21.47;61.85
73700;BME280;62005;50.082;8.988;2023-07-24T06:07:21;99471.03;;;21.51;62.66
73700;BME280;62005;50.082;8.988;2023-07-24T06:09:47;99473.66;;;21.56;62.71
73700;BME280;62005;50.082;8.988;2023-07-24T06:12:12;99439.31;;;21.45;62.82
73700;BME280;62005;50.082;8.988;2023-07-24T06:14:37;99472.72;;;21.69;63.08
73700;BME280;62005;50.082;8.988;2023-07-24T06:17:04;99460.75;;;21.65;62.93
73700;BME280;62005;50.082;8.988;2023-07-24T06:19:29;99468.88;;;21.70;62.95
73700;BME280;62005;50.082;8.988;2023-07-24T06:21:54;99456.50;;;21.59;62.62
73700;BME280;62005;50.082;8.988;2023-07-24T06:24:20;99462.63;;;21.56;62.94
73700;BME280;62005;50.082;8.988;2023-07-24T06:26:46;99467.13;;;21.52;62.90
73700;BME280;62005;50.082;8.988;2023-07-24T06:29:11;99470.38;;;21.54;63.29
73700;BME280;62005;50.082;8.988;2023-07-24T06:31:36;99478.13;;;21.52;63.29
73700;BME280;62005;50.082;8.988;2023-07-24T06:34:02;99470.22;;;21.50;63.23
73700;BME280;62005;50.082;8.988;2023-07-24T06:36:27;99468.41;;;21.46;63.34
73700;BME280;62005;50.082;8.988;2023-07-24T06:38:53;99461.63;;;21.52;63.23
73700;BME280;62005;50.082;8.988;2023-07-24T06:41:18;99472.38;;;21.62;63.83
73700;BME280;62005;50.082;8.988;2023-07-24T06:43:45;99467.03;;;21.65;63.48
73700;BME280;62005;50.082;8.988;2023-07-24T06:46:10;99452.63;;;21.60;63.40
73700;BME280;62005;50.082;8.988;2023-07-24T06:48:35;99459.75;;;21.61;63.33
73700;BME280;62005;50.082;8.988;2023-07-24T06:51:01;99481.25;;;21.81;64.05
73700;BME280;62005;50.082;8.988;2023-07-24T06:53:26;99455.16;;;21.78;63.62
73700;BME280;62005;50.082;8.988;2023-07-24T06:55:52;99469.94;;;21.91;62.71
73700;BME280;62005;50.082;8.988;2023-07-24T06:58:17;99450.06;;;22.03;62.92
73700;BME280;62005;50.082;8.988;2023-07-24T07:00:42;99470.69;;;22.22;63.55
73700;BME280;62005;50.082;8.988;2023-07-24T07:03:08;99453.50;;;22.25;62.71
73700;BME280;62005;50.082;8.988;2023-07-24T07:05:33;99452.53;;;22.21;61.63
73700;BME280;62005;50.082;8.988;2023-07-24T07:07:59;99453.84;;;22.32;61.65
73700;BME280;62005;50.082;8.988;2023-07-24T07:10:24;99459.69;;;22.39;61.70
73700;BME280;62005;50.082;8.988;2023-07-24T07:12:49;99457.25;;;22.46;61.73
73700;BME280;62005;50.082;8.988;2023-07-24T07:15:15;99464.91;;;22.66;61.51
73700;BME280;62005;50.082;8.988;2023-07-24T07:17:41;99475.31;;;22.86;61.83
73700;BME280;62005;50.082;8.988;2023-07-24T07:20:06;99467.34;;;23.02;61.22
73700;BME280;62005;50.082;8.988;2023-07-24T07:22:32;99470.91;;;23.28;61.06
73700;BME280;62005;50.082;8.988;2023-07-24T07:24:57;99465.78;;;23.56;60.81
73700;BME280;62005;50.082;8.988;2023-07-24T07:27:23;99439.59;;;23.70;59.88
73700;BME280;62005;50.082;8.988;2023-07-24T07:29:48;99448.44;;;23.93;58.83
73700;BME280;62005;50.082;8.988;2023-07-24T07:32:13;99461.31;;;24.18;58.72
73700;BME280;62005;50.082;8.988;2023-07-24T07:34:39;99465.78;;;24.31;58.95
73700;BME280;62005;50.082;8.988;2023-07-24T07:37:07;99455.41;;;24.48;57.75
73700;BME280;62005;50.082;8.988;2023-07-24T07:39:32;99460.53;;;24.59;57.71
73700;BME280;62005;50.082;8.988;2023-07-24T07:41:58;99466.78;;;24.76;56.92
73700;BME280;62005;50.082;8.988;2023-07-24T07:44:23;99455.03;;;25.00;57.13
73700;BME280;62005;50.082;8.988;2023-07-24T07:46:48;99449.69;;;25.27;56.91
73700;BME280;62005;50.082;8.988;2023-07-24T07:49:14;99437.53;;;25.40;55.36
73700;BME280;62005;50.082;8.988;2023-07-24T07:51:39;99464.13;;;25.78;55.64
73700;BME280;62005;50.082;8.988;2023-07-24T07:54:04;99442.00;;;25.90;55.04
73700;BME280;62005;50.082;8.988;2023-07-24T07:56:30;99442.94;;;26.06;53.54
73700;BME280;62005;50.082;8.988;2023-07-24T07:58:56;99453.53;;;26.16;52.62
73700;BME280;62005;50.082;8.988;2023-07-24T08:01:21;99449.97;;;26.27;53.08
73700;BME280;62005;50.082;8.988;2023-07-24T08:03:46;99444.28;;;26.24;52.61
73700;BME280;62005;50.082;8.988;2023-07-24T08:06:12;99444.28;;;26.24;52.92
73700;BME280;62005;50.082;8.988;2023-07-24T08:08:38;99442.91;;;26.30;53.81
73700;BME280;62005;50.082;8.988;2023-07-24T08:11:06;99432.84;;;26.37;51.69
73700;BME280;62005;50.082;8.988;2023-07-24T08:13:33;99423.47;;;26.42;52.17
73700;BME280;62005;50.082;8.988;2023-07-24T08:15:58;99435.69;;;26.53;51.95
73700;BME280;62005;50.082;8.988;2023-07-24T08:18:25;99419.06;;;26.53;53.38
73700;BME280;62005;50.082;8.988;2023-07-24T08:20:50;99398.41;;;26.50;52.25
73700;BME280;62005;50.082;8.988;2023-07-24T08:23:16;99396.19;;;26.56;50.32
73700;BME280;62005;50.082;8.988;2023-07-24T08:25:53;99396.97;;;26.56;52.10
73700;BME280;62005;50.082;8.988;2023-07-24T08:28:19;99423.66;;;26.73;52.13
73700;BME280;62005;50.082;8.988;2023-07-24T08:30:45;99417.38;;;26.76;51.23
73700;BME280;62005;50.082;8.988;2023-07-24T08:33:12;99396.38;;;26.63;51.11
73700;BME280;62005;50.082;8.988;2023-07-24T08:35:37;99377.47;;;26.53;51.20
73700;BME280;62005;50.082;8.988;2023-07-24T08:38:02;99408.44;;;26.67;50.50
73700;BME280;62005;50.082;8.988;2023-07-24T08:40:28;99410.03;;;26.68;50.63
73700;BME280;62005;50.082;8.988;2023-07-24T08:42:55;99409.81;;;26.61;50.46
73700;BME280;62005;50.082;8.988;2023-07-24T08:45:23;99389.72;;;26.52;50.00
73700;BME280;62005;50.082;8.988;2023-07-24T08:47:49;99398.84;;;26.52;50.47
73700;BME280;62005;50.082;8.988;2023-07-24T08:50:16;99394.16;;;26.41;50.67
73700;BME280;62005;50.082;8.988;2023-07-24T08:52:42;99406.03;;;26.41;49.11
73700;BME280;62005;50.082;8.988;2023-07-24T08:55:10;99414.69;;;26.40;50.15
73700;BME280;62005;50.082;8.988;2023-07-24T08:57:36;99414.50;;;26.33;50.30
73700;BME280;62005;50.082;8.988;2023-07-24T09:00:02;99402.28;;;26.22;50.60
73700;BME280;62005;50.082;8.988;2023-07-24T09:02:33;99385.41;;;26.15;49.60
73700;BME280;62005;50.082;8.988;2023-07-24T09:04:58;99385.09;;;26.04;50.74
73700;BME280;62005;50.082;8.988;2023-07-24T09:07:24;99397.44;;;25.95;50.82
73700;BME280;62005;50.082;8.988;2023-07-24T09:09:49;99374.16;;;25.72;50.96
73700;BME280;62005;50.082;8.988;2023-07-24T09:12:15;99394.66;;;25.83;51.05
73700;BME280;62005;50.082;8.988;2023-07-24T09:14:41;99375.97;;;25.67;51.34
73700;BME280;62005;50.082;8.988;2023-07-24T09:17:08;99383.59;;;25.70;51.02
73700;BME280;62005;50.082;8.988;2023-07-24T09:19:36;99385.78;;;25.77;50.53
73700;BME280;62005;50.082;8.988;2023-07-24T09:22:15;99391.19;;;25.73;50.97
73700;BME280;62005;50.082;8.988;2023-07-24T09:24:53;99401.03;;;25.83;50.79
73700;BME280;62005;50.082;8.988;2023-07-24T09:27:20;99396.16;;;25.92;50.50
73700;BME280;62005;50.082;8.988;2023-07-24T09:29:46;99370.66;;;25.99;50.61
73700;BME280;62005;50.082;8.988;2023-07-24T09:32:24;99385.63;;;26.22;49.99
73700;BME280;62005;50.082;8.988;2023-07-24T09:34:50;99374.53;;;26.34;50.02
73700;BME280;62005;50.082;8.988;2023-07-24T09:37:42;99362.50;;;26.42;48.91
73700;BME280;62005;50.082;8.988;2023-07-24T09:40:09;99351.41;;;26.42;49.76
73700;BME280;62005;50.082;8.988;2023-07-24T09:42:35;99336.91;;;26.33;50.22
73700;BME280;62005;50.082;8.988;2023-07-24T09:45:01;99338.28;;;26.27;49.75
73700;BME280;62005;50.082;8.988;2023-07-24T09:47:27;99319.13;;;26.22;50.16
73700;BME280;62005;50.082;8.988;2023-07-24T09:49:55;99309.00;;;26.14;50.74
73700;BME280;62005;50.082;8.988;2023-07-24T09:52:21;99290.09;;;26.04;51.09
73700;BME280;62005;50.082;8.988;2023-07-24T09:55:04;99312.72;;;25.94;51.04
73700;BME280;62005;50.082;8.988;2023-07-24T09:57:32;99288.31;;;25.72;51.49
73700;BME280;62005;50.082;8.988;2023-07-24T10:00:00;99327.97;;;25.88;51.68
73700;BME280;62005;50.082;8.988;2023-07-24T10:02:27;99340.69;;;25.77;52.34
73700;BME280;62005;50.082;8.988;2023-07-24T10:04:53;99332.03;;;25.66;52.17
73700;BME280;62005;50.082;8.988;2023-07-24T10:07:20;99325.13;;;25.60;52.79
73700;BME280;62005;50.082;8.988;2023-07-24T10:09:48;99354.53;;;25.64;52.86
73700;BME280;62005;50.082;8.988;2023-07-24T10:12:16;99358.44;;;25.63;53.29
73700;BME280;62005;50.082;8.988;2023-07-24T10:14:43;99344.81;;;25.58;52.43
73700;BME280;62005;50.082;8.988;2023-07-24T10:17:09;99358.00;;;25.61;53.04
73700;BME280;62005;50.082;8.988;2023-07-24T10:19:42;99354.28;;;25.57;52.94
73700;BME280;62005;50.082;8.988;2023-07-24T10:22:17;99349.34;;;25.51;53.41
73700;BME280;62005;50.082;8.988;2023-07-24T10:24:47;99353.47;;;25.57;53.35
73700;BME280;62005;50.082;8.988;2023-07-24T10:27:13;99346.22;;;25.52;53.64
73700;BME280;62005;50.082;8.988;2023-07-24T10:29:38;99346.91;;;25.49;53.49
73700;BME280;62005;50.082;8.988;2023-07-24T10:32:05;99342.06;;;25.46;53.69
73700;BME280;62005;50.082;8.988;2023-07-24T10:34:41;99357.28;;;25.52;53.94
73700;BME280;62005;50.082;8.988;2023-07-24T10:37:08;99339.13;;;25.31;53.63
73700;BME280;62005;50.082;8.988;2023-07-24T10:39:39;99353.16;;;25.46;54.06
73700;BME280;62005;50.082;8.988;2023-07-24T10:42:09;99344.84;;;25.46;53.55
73700;BME280;62005;50.082;8.988;2023-07-24T10:44:35;99342.78;;;25.43;54.35
73700;BME280;62005;50.082;8.988;2023-07-24T10:47:00;99337.69;;;25.45;53.98
73700;BME280;62005;50.082;8.988;2023-07-24T10:49:26;99342.84;;;25.47;53.83
73700;BME280;62005;50.082;8.988;2023-07-24T10:51:56;99345.31;;;25.48;53.12
73700;BME280;62005;50.082;8.988;2023-07-24T10:54:21;99333.53;;;25.51;53.50
73700;BME280;62005;50.082;8.988;2023-07-24T10:56:47;99338.84;;;25.44;52.95
73700;BME280;62005;50.082;8.988;2023-07-24T10:59:12;99331.47;;;25.36;53.06
73700;BME280;62005;50.082;8.988;2023-07-24T11:01:40;99334.47;;;25.43;54.08
73700;BME280;62005;50.082;8.988;2023-07-24T11:04:06;99324.78;;;25.49;54.01
73700;BME280;62005;50.082;8.988;2023-07-24T11:06:32;99338.84;;;25.56;53.27
73700;BME280;62005;50.082;8.988;2023-07-24T11:08:58;99332.25;;;25.61;53.43
73700;BME280;62005;50.082;8.988;2023-07-24T11:11:28;99314.13;;;25.76;53.53
73700;BME280;62005;50.082;8.988;2023-07-24T11:13:59;99326.09;;;25.92;53.43
73700;BME280;62005;50.082;8.988;2023-07-24T11:16:25;99309.47;;;25.92;52.76
73700;BME280;62005;50.082;8.988;2023-07-24T11:18:51;99327.50;;;26.10;52.07
73700;BME280;62005;50.082;8.988;2023-07-24T11:21:22;99327.22;;;26.15;51.36
73700;BME280;62005;50.082;8.988;2023-07-24T11:23:55;99304.75;;;26.16;51.25
73700;BME280;62005;50.082;8.988;2023-07-24T11:26:22;99305.03;;;26.27;51.49
73700;BME280;62005;50.082;8.988;2023-07-24T11:28:49;99304.16;;;26.23;49.77
73700;BME280;62005;50.082;8.988;2023-07-24T11:31:15;99313.09;;;26.32;50.75
73700;BME280;62005;50.082;8.988;2023-07-24T11:33:41;99311.50;;;26.31;49.38
73700;BME280;62005;50.082;8.988;2023-07-24T11:36:07;99317.94;;;26.35;49.63
73700;BME280;62005;50.082;8.988;2023-07-24T11:38:33;99278.53;;;26.14;48.77
73700;BME280;62005;50.082;8.988;2023-07-24T11:40:58;99291.91;;;26.12;48.59
73700;BME280;62005;50.082;8.988;2023-07-24T11:43:24;99309.47;;;26.16;48.87
73700;BME280;62005;50.082;8.988;2023-07-24T11:45:53;99306.00;;;26.19;49.18
73700;BME280;62005;50.082;8.988;2023-07-24T11:48:20;99312.69;;;26.18;49.74
73700;BME280;62005;50.082;8.988;2023-07-24T11:50:53;99305.75;;;26.24;49.61
73700;BME280;62005;50.082;8.988;2023-07-24T11:53:27;99291.88;;;26.24;50.87
73700;BME280;62005;50.082;8.988;2023-07-24T11:55:55;99283.38;;;26.17;51.07
73700;BME280;62005;50.082;8.988;2023-07-24T11:58:21;99279.09;;;26.19;51.12
73700;BME280;62005;50.082;8.988;2023-07-24T12:00:47;99274.81;;;26.22;51.46
73700;BME280;62005;50.082;8.988;2023-07-24T12:03:14;99275.81;;;26.29;52.17
73700;BME280;62005;50.082;8.988;2023-07-24T12:05:44;99267.34;;;26.38;51.07
73700;BME280;62005;50.082;8.988;2023-07-24T12:08:10;99269.84;;;26.43;51.61
73700;BME280;62005;50.082;8.988;2023-07-24T12:10:38;99269.84;;;26.43;51.60
73700;BME280;62005;50.082;8.988;2023-07-24T12:13:04;99260.56;;;26.35;51.97
73700;BME280;62005;50.082;8.988;2023-07-24T12:15:30;99269.34;;;26.53;52.03
73700;BME280;62005;50.082;8.988;2023-07-24T12:17:55;99261.69;;;26.62;52.74
73700;BME280;62005;50.082;8.988;2023-07-24T12:20:22;99276.00;;;26.64;51.78
73700;BME280;62005;50.082;8.988;2023-07-24T12:22:47;99260.66;;;26.54;51.68
73700;BME280;62005;50.082;8.988;2023-07-24T12:25:13;99251.63;;;26.42;52.03
73700;BME280;62005;50.082;8.988;2023-07-24T12:27:39;99251.41;;;26.35;51.60
73700;BME280;62005;50.082;8.988;2023-07-24T12:30:06;99244.06;;;26.27;52.33
73700;BME280;62005;50.082;8.988;2023-07-24T12:32:32;99235.81;;;26.15;52.70
73700;BME280;62005;50.082;8.988;2023-07-24T12:34:57;99232.09;;;26.23;52.34
73700;BME280;62005;50.082;8.988;2023-07-24T12:37:23;99233.91;;;26.31;52.13
73700;BME280;62005;50.082;8.988;2023-07-24T12:39:48;99223.28;;;26.33;52.48
73700;BME280;62005;50.082;8.988;2023-07-24T12:42:14;99215.13;;;26.40;52.59
73700;BME280;62005;50.082;8.988;2023-07-24T12:44:41;99213.34;;;26.32;52.02
73700;BME280;62005;50.082;8.988;2023-07-24T12:47:07;99218.25;;;26.38;52.00
73700;BME280;62005;50.082;8.988;2023-07-24T12:49:32;99202.44;;;26.39;51.96
73700;BME280;62005;50.082;8.988;2023-07-24T12:51:58;99212.22;;;26.64;51.68
73700;BME280;62005;50.082;8.988;2023-07-24T12:54:23;99200.22;;;26.60;51.17
73700;BME280;62005;50.082;8.988;2023-07-24T12:56:51;99205.50;;;26.65;50.36